createdAt,value
2023-02-11T00:01:27.981Z,67.63
2023-02-11T00:03:56.255Z,67.55
2023-02-11T00:06:25.231Z,67.61
2023-02-11T00:08:53.568Z,67.73
2023-02-11T00:11:24.940Z,67.63
2023-02-11T00:13:53.374Z,67.50
2023-02-11T00:16:21.426Z,67.52
2023-02-11T00:18:52.403Z,67.55
2023-02-11T00:21:22.841Z,67.42
2023-02-11T00:23:51.340Z,67.27
2023-02-11T00:26:21.495Z,67.56
2023-02-11T00:28:51.106Z,67.72
2023-02-11T00:31:20.323Z,67.68
2023-02-11T00:33:49.702Z,67.31
2023-02-11T00:36:20.006Z,67.41
2023-02-11T00:38:49.645Z,67.55
2023-02-11T00:41:18.540Z,67.44
2023-02-11T00:43:47.208Z,67.38
2023-02-11T00:46:15.942Z,67.56
2023-02-11T00:48:44.333Z,67.34
2023-02-11T00:51:12.771Z,67.13
2023-02-11T00:53:40.677Z,67.15
2023-02-11T00:56:09.336Z,67.15
2023-02-11T00:58:37.483Z,67.19
2023-02-11T01:01:07.198Z,67.15
2023-02-11T01:03:35.195Z,67.03
2023-02-11T01:06:03.424Z,67.24
2023-02-11T01:08:31.567Z,67.02
2023-02-11T01:11:02.373Z,66.99
2023-02-11T01:13:32.796Z,67.19
2023-02-11T01:16:00.923Z,67.42
2023-02-11T01:18:29.264Z,67.26
2023-02-11T01:20:57.402Z,67.02
2023-02-11T01:23:25.504Z,67.35
2023-02-11T01:25:53.775Z,67.29
2023-02-11T01:28:24.374Z,67.22
2023-02-11T01:30:54.116Z,67.04
2023-02-11T01:33:23.543Z,67.10
2023-02-11T01:35:52.421Z,66.79
2023-02-11T01:38:23.217Z,66.70
2023-02-11T01:40:54.711Z,67.04
2023-02-11T01:43:24.151Z,67.07
2023-02-11T01:46:02.948Z,67.12
2023-02-11T01:48:37.475Z,67.20
2023-02-11T01:51:10.637Z,67.24
2023-02-11T01:53:58.263Z,67.12
2023-02-11T01:56:46.581Z,67.04
2023-02-11T01:59:20.016Z,67.02
2023-02-11T02:01:52.850Z,67.04
2023-02-11T02:04:26.474Z,66.78
2023-02-11T02:07:01.669Z,67.02
2023-02-11T02:09:37.623Z,66.87
2023-02-11T02:12:05.998Z,66.74
2023-02-11T02:14:37.004Z,66.57
2023-02-11T02:17:07.049Z,66.77
2023-02-11T02:20:14.222Z,66.77
2023-02-11T02:23:05.018Z,66.67
2023-02-11T02:26:19.455Z,66.87
2023-02-11T02:29:19.498Z,66.91
2023-02-11T02:32:05.303Z,66.57
2023-02-11T02:34:43.383Z,66.63
2023-02-11T02:37:19.565Z,67.15
2023-02-11T02:39:50.172Z,66.87
2023-02-11T02:42:20.279Z,66.63
2023-02-11T02:44:50.318Z,66.91
2023-02-11T02:47:19.228Z,66.89
2023-02-11T02:49:47.790Z,66.62
2023-02-11T02:52:29.807Z,66.86
2023-02-11T02:55:24.266Z,66.80
2023-02-11T02:58:14.150Z,66.87
2023-02-11T03:00:49.850Z,66.93
2023-02-11T03:03:29.879Z,67.06
2023-02-11T03:06:03.777Z,66.90
2023-02-11T03:08:38.830Z,67.01
2023-02-11T03:11:09.676Z,67.18
2023-02-11T03:13:39.967Z,66.85
2023-02-11T03:16:13.272Z,67.03
2023-02-11T03:18:47.391Z,66.84
2023-02-11T03:21:18.237Z,66.77
2023-02-11T03:23:52.775Z,66.85
2023-02-11T03:26:26.635Z,66.44
2023-02-11T03:29:00.735Z,66.64
2023-02-11T03:31:33.907Z,66.75
2023-02-11T03:34:10.130Z,66.70
2023-02-11T03:36:45.369Z,66.84
2023-02-11T03:39:23.154Z,66.79
2023-02-11T03:41:54.896Z,66.76
2023-02-11T03:44:27.551Z,66.47
2023-02-11T03:46:56.438Z,66.54
2023-02-11T03:49:28.566Z,66.66
2023-02-11T03:51:57.887Z,66.63
2023-02-11T03:54:29.986Z,66.41
2023-02-11T03:57:00.459Z,66.41
2023-02-11T03:59:29.428Z,66.35
2023-02-11T04:01:58.896Z,66.40
2023-02-11T04:04:26.934Z,66.38
2023-02-11T04:06:55.012Z,66.29
2023-02-11T04:09:23.188Z,66.07
2023-02-11T04:11:51.236Z,66.07
2023-02-11T04:14:19.289Z,66.02
2023-02-11T04:16:47.242Z,66.25
2023-02-11T04:19:15.351Z,66.11
2023-02-11T04:21:43.362Z,65.83
2023-02-11T04:24:11.413Z,66.05
2023-02-11T04:26:39.431Z,66.18
2023-02-11T04:29:07.448Z,66.21
2023-02-11T04:31:35.485Z,66.06
2023-02-11T04:34:03.510Z,65.79
2023-02-11T04:36:31.558Z,66.11
2023-02-11T04:39:00.023Z,65.97
2023-02-11T04:41:27.948Z,66.02
2023-02-11T04:43:55.920Z,66.02
2023-02-11T04:46:24.031Z,65.69
2023-02-11T04:48:51.991Z,65.59
2023-02-11T04:51:20.051Z,65.84
2023-02-11T04:53:47.981Z,65.85
2023-02-11T04:56:15.940Z,65.91
2023-02-11T04:58:44.455Z,65.71
2023-02-11T05:01:15.241Z,65.94
2023-02-11T05:03:43.526Z,65.81
2023-02-11T05:06:12.116Z,65.84
2023-02-11T05:08:40.154Z,65.90
2023-02-11T05:11:14.595Z,65.72
2023-02-11T05:13:43.801Z,66.00
2023-02-11T05:16:12.552Z,65.93
2023-02-11T05:18:42.231Z,65.80
2023-02-11T05:21:12.342Z,65.85
2023-02-11T05:23:41.260Z,65.77
2023-02-11T05:26:10.047Z,65.50
2023-02-11T05:28:38.611Z,65.84
2023-02-11T05:31:06.768Z,65.95
2023-02-11T05:33:35.026Z,65.85
2023-02-11T05:36:07.632Z,65.71
2023-02-11T05:38:36.296Z,65.73
2023-02-11T05:41:05.688Z,65.70
2023-02-11T05:43:34.735Z,65.67
2023-02-11T05:46:03.472Z,65.68
2023-02-11T05:48:31.988Z,65.62
2023-02-11T05:51:00.117Z,65.78
2023-02-11T05:53:28.112Z,65.74
2023-02-11T05:55:56.879Z,65.58
2023-02-11T05:58:24.840Z,65.53
2023-02-11T06:00:53.056Z,65.48
2023-02-11T06:03:21.096Z,65.67
2023-02-11T06:05:49.404Z,65.58
2023-02-11T06:08:17.682Z,65.35
2023-02-11T06:10:46.327Z,65.39
2023-02-11T06:13:17.995Z,65.47
2023-02-11T06:15:55.036Z,65.22
2023-02-11T06:18:23.054Z,65.58
2023-02-11T06:20:51.101Z,65.34
2023-02-11T06:23:19.127Z,65.56
2023-02-11T06:25:47.088Z,65.52
2023-02-11T06:28:15.153Z,65.53
2023-02-11T06:30:44.428Z,65.23
2023-02-11T06:33:12.496Z,65.39
2023-02-11T06:35:40.600Z,65.65
2023-02-11T06:38:08.668Z,65.60
2023-02-11T06:40:36.788Z,65.83
2023-02-11T06:43:04.997Z,65.59
2023-02-11T06:45:33.034Z,65.68
2023-02-11T06:48:01.000Z,65.66
2023-02-11T06:50:28.961Z,65.42
2023-02-11T06:52:58.412Z,65.35
2023-02-11T06:55:26.363Z,65.18
2023-02-11T06:57:54.416Z,65.36
2023-02-11T07:00:26.034Z,65.13
2023-02-11T07:02:54.196Z,65.36
2023-02-11T07:05:22.485Z,65.33
2023-02-11T07:07:50.414Z,65.12
2023-02-11T07:10:18.692Z,65.27
2023-02-11T07:12:47.146Z,65.25
2023-02-11T07:15:15.188Z,64.93
2023-02-11T07:17:43.197Z,65.22
2023-02-11T07:20:14.012Z,65.19
2023-02-11T07:22:42.013Z,65.26
2023-02-11T07:25:09.994Z,65.27
2023-02-11T07:27:37.997Z,65.14
2023-02-11T07:30:07.800Z,65.37
2023-02-11T07:32:35.800Z,65.75
2023-02-11T07:35:04.309Z,65.64
2023-02-11T07:37:34.119Z,65.61
2023-02-11T07:40:02.138Z,65.52
2023-02-11T07:42:30.125Z,65.81
2023-02-11T07:44:58.170Z,65.74
2023-02-11T07:47:26.287Z,65.98
2023-02-11T07:49:56.564Z,65.94
2023-02-11T07:52:24.860Z,66.15
2023-02-11T07:54:52.849Z,66.28
2023-02-11T07:57:21.300Z,66.18
2023-02-11T07:59:49.207Z,66.38
2023-02-11T08:02:17.290Z,66.37
2023-02-11T08:04:46.928Z,66.35
2023-02-11T08:07:16.459Z,66.56
2023-02-11T08:09:44.865Z,66.50
2023-02-11T08:12:13.118Z,66.70
2023-02-11T08:14:41.191Z,66.55
2023-02-11T08:17:09.326Z,66.69
2023-02-11T08:19:38.563Z,67.08
2023-02-11T08:22:06.530Z,67.03
2023-02-11T08:24:34.545Z,67.03
2023-02-11T08:27:02.640Z,66.92
2023-02-11T08:29:30.699Z,67.15
2023-02-11T08:31:58.669Z,67.01
2023-02-11T08:34:26.607Z,67.21
2023-02-11T08:36:54.521Z,67.14
2023-02-11T08:39:23.388Z,67.24
2023-02-11T08:41:53.267Z,67.27
2023-02-11T08:44:22.646Z,67.17
2023-02-11T08:46:51.882Z,67.35
2023-02-11T08:49:20.481Z,67.58
2023-02-11T08:51:50.230Z,67.25
2023-02-11T08:54:18.900Z,67.40
2023-02-11T08:56:50.558Z,67.48
2023-02-11T08:59:18.594Z,67.56
2023-02-11T09:01:48.082Z,67.64
2023-02-11T09:04:16.247Z,67.59
2023-02-11T09:06:44.427Z,67.72
2023-02-11T09:09:30.770Z,67.52
2023-02-11T09:12:00.640Z,67.54
2023-02-11T09:14:28.644Z,67.76
2023-02-11T09:16:57.712Z,67.85
2023-02-11T09:19:25.699Z,67.66
2023-02-11T09:21:53.746Z,68.17
2023-02-11T09:24:22.269Z,67.71
2023-02-11T09:26:50.413Z,67.98
2023-02-11T09:29:18.529Z,68.12
2023-02-11T09:31:47.814Z,68.19
2023-02-11T09:34:16.042Z,68.12
2023-02-11T09:36:44.229Z,68.26
2023-02-11T09:39:21.667Z,68.29
2023-02-11T09:42:15.914Z,68.35
2023-02-11T09:44:46.257Z,68.25
2023-02-11T09:47:24.722Z,68.25
2023-02-11T09:49:59.872Z,68.31
2023-02-11T09:52:35.736Z,68.60
2023-02-11T09:55:05.628Z,68.95
2023-02-11T09:57:36.235Z,68.88
2023-02-11T10:00:19.238Z,68.85
2023-02-11T10:03:04.338Z,69.02
2023-02-11T10:05:49.461Z,68.91
2023-02-11T10:08:29.288Z,69.22
2023-02-11T10:11:08.506Z,69.51
2023-02-11T10:13:57.287Z,69.71
2023-02-11T10:16:45.264Z,69.49
2023-02-11T10:22:32.104Z,69.71
2023-02-11T10:25:09.803Z,69.50
2023-02-11T10:27:37.875Z,69.54
2023-02-11T10:30:17.882Z,69.82
2023-02-11T10:32:51.772Z,70.10
2023-02-11T10:35:22.145Z,69.80
2023-02-11T10:37:57.593Z,69.71
2023-02-11T10:40:27.840Z,70.17
2023-02-11T10:42:59.084Z,70.08
2023-02-11T10:45:32.546Z,69.97
2023-02-11T10:48:03.229Z,70.02
2023-02-11T10:50:36.157Z,70.06
2023-02-11T10:53:19.152Z,70.32
2023-02-11T10:55:53.177Z,70.13
2023-02-11T10:58:27.844Z,70.27
2023-02-11T11:00:58.637Z,70.16
2023-02-11T11:03:28.852Z,70.27
2023-02-11T11:05:59.583Z,70.63
2023-02-11T11:08:40.102Z,70.64
2023-02-11T11:11:09.975Z,70.62
2023-02-11T11:13:40.379Z,70.47
2023-02-11T11:16:17.921Z,70.57
2023-02-11T11:18:49.549Z,71.05
2023-02-11T11:21:21.424Z,71.00
2023-02-11T11:23:53.556Z,71.00
2023-02-11T11:26:22.858Z,70.71
2023-02-11T11:28:57.737Z,71.04
2023-02-11T11:31:29.529Z,70.89
2023-02-11T11:34:00.375Z,70.99
2023-02-11T11:36:38.728Z,70.69
2023-02-11T11:39:22.433Z,70.72
2023-02-11T11:41:53.634Z,71.28
2023-02-11T11:44:30.243Z,71.23
2023-02-11T11:47:24.726Z,70.72
2023-02-11T11:50:05.426Z,71.00
2023-02-11T11:52:44.928Z,71.22
2023-02-11T11:55:19.442Z,71.03
2023-02-11T11:57:48.771Z,71.38
2023-02-11T12:00:21.202Z,71.42
2023-02-11T12:03:06.509Z,71.40
2023-02-11T12:05:42.378Z,71.37
2023-02-11T12:08:21.669Z,71.66
2023-02-11T12:10:59.740Z,71.33
2023-02-11T12:13:40.693Z,71.44
2023-02-11T12:16:18.978Z,71.78
2023-02-11T12:19:14.278Z,71.35
2023-02-11T12:21:52.785Z,71.59
2023-02-11T12:24:36.908Z,71.78
2023-02-11T12:27:13.093Z,71.61
2023-02-11T12:29:55.747Z,71.76
2023-02-11T12:32:32.850Z,71.89
2023-02-11T12:35:13.977Z,71.95
2023-02-11T12:37:58.332Z,71.89
2023-02-11T12:40:36.590Z,71.98
2023-02-11T12:43:19.867Z,72.03
2023-02-11T12:46:00.942Z,71.98
2023-02-11T12:48:57.644Z,72.28
2023-02-11T12:51:41.733Z,72.22
2023-02-11T12:54:24.247Z,72.22
2023-02-11T12:57:01.476Z,72.36
2023-02-11T12:59:44.588Z,72.33
2023-02-11T13:02:26.346Z,72.57
2023-02-11T13:04:57.195Z,72.30
2023-02-11T13:07:31.071Z,72.41
2023-02-11T13:10:15.804Z,72.46
2023-02-11T13:13:06.364Z,72.12
2023-02-11T13:15:34.977Z,72.38
2023-02-11T13:18:12.596Z,72.33
2023-02-11T13:20:48.092Z,72.53
2023-02-11T13:23:26.025Z,72.38
2023-02-11T13:26:03.836Z,72.29
2023-02-11T13:28:44.602Z,72.62
2023-02-11T13:32:11.491Z,72.44
2023-02-11T13:35:01.846Z,72.56
2023-02-11T13:37:38.555Z,72.56
2023-02-11T13:40:24.956Z,72.56
2023-02-11T13:43:20.872Z,72.43
2023-02-11T13:45:49.521Z,72.55
2023-02-11T13:48:25.034Z,72.55
2023-02-11T13:50:58.664Z,72.68
2023-02-11T13:53:30.904Z,72.86
2023-02-11T13:56:09.632Z,73.10
2023-02-11T13:58:46.634Z,72.78
2023-02-11T14:01:42.782Z,73.15
2023-02-11T14:04:40.874Z,72.71
2023-02-11T14:07:49.824Z,72.88
2023-02-11T14:10:50.398Z,73.14
2023-02-11T14:13:25.642Z,72.73
2023-02-11T14:16:09.005Z,72.82
2023-02-11T14:18:59.775Z,72.76
2023-02-11T14:21:38.496Z,73.01
2023-02-11T14:24:46.427Z,73.08
2023-02-11T14:27:23.663Z,72.89
2023-02-11T14:30:12.514Z,72.87
2023-02-11T14:32:58.177Z,73.05
2023-02-11T14:35:35.367Z,73.23
2023-02-11T14:38:14.422Z,73.01
2023-02-11T14:40:51.501Z,73.01
2023-02-11T14:43:24.193Z,73.18
2023-02-11T14:45:59.364Z,73.00
2023-02-11T14:48:34.410Z,72.83
2023-02-11T14:51:06.890Z,73.27
2023-02-11T14:53:36.738Z,73.13
2023-02-11T14:56:18.384Z,73.20
2023-02-11T14:58:51.170Z,73.33
2023-02-11T15:01:31.816Z,73.06
2023-02-11T15:04:02.261Z,73.06
2023-02-11T15:06:33.015Z,73.14
2023-02-11T15:09:06.198Z,73.27
2023-02-11T15:11:41.063Z,73.24
2023-02-11T15:14:19.142Z,73.08
2023-02-11T15:16:49.468Z,73.38
2023-02-11T15:19:26.762Z,73.33
2023-02-11T15:21:56.264Z,73.29
2023-02-11T15:25:09.804Z,73.50
2023-02-11T15:27:42.396Z,73.26
2023-02-11T15:30:33.516Z,73.37
2023-02-11T15:33:06.241Z,73.31
2023-02-11T15:35:37.230Z,73.30
2023-02-11T15:38:06.010Z,73.21
2023-02-11T15:40:36.231Z,73.46
2023-02-11T15:43:09.575Z,73.51
2023-02-11T15:45:40.281Z,73.64
2023-02-11T15:48:12.718Z,73.46
2023-02-11T15:50:42.703Z,73.70
2023-02-11T15:53:22.912Z,73.54
2023-02-11T15:55:54.070Z,73.46
2023-02-11T15:58:23.120Z,73.68
2023-02-11T16:00:59.064Z,73.70
2023-02-11T16:03:31.878Z,73.83
2023-02-11T16:06:18.617Z,73.67
2023-02-11T16:08:58.942Z,73.89
2023-02-11T16:11:30.619Z,73.81
2023-02-11T16:14:00.158Z,73.73
2023-02-11T16:16:31.603Z,73.90
2023-02-11T16:19:05.366Z,74.11
2023-02-11T16:21:38.325Z,74.07
2023-02-11T16:24:08.408Z,73.86
2023-02-11T16:26:40.307Z,74.22
2023-02-11T16:29:15.073Z,74.00
2023-02-11T16:31:46.294Z,74.39
2023-02-11T16:34:19.325Z,74.18
2023-02-11T16:36:48.474Z,74.15
2023-02-11T16:39:17.699Z,74.39
2023-02-11T16:41:45.936Z,74.52
2023-02-11T16:44:14.204Z,74.39
2023-02-11T16:46:42.836Z,74.28
2023-02-11T16:49:16.254Z,74.18
2023-02-11T16:51:47.464Z,74.38
2023-02-11T16:54:16.940Z,74.38
2023-02-11T16:56:44.997Z,74.41
2023-02-11T16:59:13.322Z,74.35
2023-02-11T17:01:43.825Z,74.53
2023-02-11T17:04:18.246Z,74.38
2023-02-11T17:06:47.547Z,74.54
2023-02-11T17:09:19.708Z,74.75
2023-02-11T17:11:48.770Z,74.35
2023-02-11T17:14:17.697Z,74.38
2023-02-11T17:16:48.265Z,74.35
2023-02-11T17:19:19.173Z,74.30
2023-02-11T17:21:49.348Z,74.54
2023-02-11T17:24:17.998Z,74.31
2023-02-11T17:26:46.575Z,74.43
2023-02-11T17:29:18.296Z,74.18
2023-02-11T17:31:46.329Z,74.47
2023-02-11T17:34:14.788Z,74.34
2023-02-11T17:36:42.801Z,74.43
2023-02-11T17:39:11.120Z,74.46
2023-02-11T17:41:39.896Z,74.53
2023-02-11T17:44:11.580Z,74.64
2023-02-11T17:46:39.592Z,74.44
2023-02-11T17:49:07.715Z,74.31
2023-02-11T17:51:37.454Z,74.43
2023-02-11T17:54:07.582Z,74.37
2023-02-11T17:56:36.829Z,74.54
2023-02-11T17:59:07.684Z,74.39
2023-02-11T18:01:37.668Z,74.29
2023-02-11T18:04:07.551Z,74.31
2023-02-11T18:06:36.564Z,74.25
2023-02-11T18:09:04.826Z,74.39
2023-02-11T18:11:36.496Z,74.34
2023-02-11T18:14:07.188Z,74.37
2023-02-11T18:16:38.552Z,74.40
2023-02-11T18:19:07.555Z,74.39
2023-02-11T18:21:35.809Z,74.25
2023-02-11T18:24:07.024Z,74.35
2023-02-11T18:26:35.186Z,74.29
2023-02-11T18:29:06.314Z,74.25
2023-02-11T18:31:35.826Z,74.24
2023-02-11T18:34:06.830Z,74.37
2023-02-11T18:36:37.260Z,74.25
2023-02-11T18:39:05.865Z,74.27
2023-02-11T18:41:36.212Z,74.31
2023-02-11T18:44:05.392Z,74.01
2023-02-11T18:46:33.929Z,74.08
2023-02-11T18:49:02.021Z,74.16
2023-02-11T18:51:31.892Z,74.18
2023-02-11T18:54:01.171Z,74.15
2023-02-11T18:56:29.316Z,73.99
2023-02-11T18:59:00.400Z,74.05
2023-02-11T19:01:30.492Z,74.08
2023-02-11T19:04:02.078Z,73.95
2023-02-11T19:06:32.534Z,74.00
2023-02-11T19:09:04.244Z,73.91
2023-02-11T19:11:49.699Z,74.13
2023-02-11T19:14:21.048Z,74.00
2023-02-11T19:16:50.640Z,73.98
2023-02-11T19:19:19.998Z,74.00
2023-02-11T19:21:48.421Z,73.93
2023-02-11T19:24:19.153Z,74.01
2023-02-11T19:26:49.369Z,73.90
2023-02-11T19:29:18.148Z,73.93
2023-02-11T19:31:46.710Z,73.74
2023-02-11T19:34:16.705Z,73.73
2023-02-11T19:36:44.789Z,73.82
2023-02-11T19:39:13.638Z,73.88
2023-02-11T19:41:41.734Z,73.90
2023-02-11T19:44:09.891Z,73.74
2023-02-11T19:46:40.343Z,73.57
2023-02-11T19:49:09.575Z,73.64
2023-02-11T19:51:38.745Z,73.50
2023-02-11T19:54:08.137Z,73.68
2023-02-11T19:56:37.248Z,73.61
2023-02-11T19:59:08.181Z,73.57
2023-02-11T20:01:36.597Z,73.49
2023-02-11T20:04:05.400Z,73.66
2023-02-11T20:06:34.441Z,73.59
2023-02-11T20:09:05.583Z,73.64
2023-02-11T20:11:34.451Z,73.58
2023-02-11T20:14:03.479Z,73.57
2023-02-11T20:16:46.920Z,73.52
2023-02-11T20:19:19.357Z,73.43
2023-02-11T20:21:50.557Z,73.20
2023-02-11T20:24:19.276Z,73.43
2023-02-11T20:26:47.858Z,73.36
2023-02-11T20:29:16.569Z,73.40
2023-02-11T20:31:46.013Z,73.37
2023-02-11T20:34:16.851Z,73.32
2023-02-11T20:36:50.891Z,73.24
2023-02-11T20:39:21.557Z,73.19
2023-02-11T20:41:53.271Z,73.33
2023-02-11T20:44:22.813Z,73.22
2023-02-11T20:46:53.334Z,73.10
2023-02-11T20:49:23.954Z,73.10
2023-02-11T20:51:53.021Z,73.11
2023-02-11T20:54:23.258Z,73.13
2023-02-11T20:56:52.977Z,72.99
2023-02-11T20:59:22.816Z,72.95
2023-02-11T21:01:53.613Z,72.88
2023-02-11T21:04:23.653Z,72.97
2023-02-11T21:06:54.840Z,72.95
2023-02-11T21:09:27.961Z,72.96
2023-02-11T21:11:56.444Z,72.84
2023-02-11T21:14:25.838Z,72.86
2023-02-11T21:16:54.688Z,72.95
2023-02-11T21:19:23.139Z,72.76
2023-02-11T21:21:51.428Z,72.61
2023-02-11T21:24:19.900Z,72.34
2023-02-11T21:26:48.251Z,71.81
2023-02-11T21:29:16.398Z,71.41
2023-02-11T21:31:44.686Z,71.09
2023-02-11T21:34:15.220Z,70.60
2023-02-11T21:36:44.709Z,70.37
2023-02-11T21:39:13.421Z,69.80
2023-02-11T21:41:41.771Z,70.02
2023-02-11T21:44:10.103Z,69.84
2023-02-11T21:46:38.646Z,69.73
2023-02-11T21:49:06.653Z,69.79
2023-02-11T21:51:34.986Z,69.49
2023-02-11T21:54:03.881Z,69.15
2023-02-11T21:56:33.767Z,68.91
2023-02-11T21:59:01.826Z,68.96
2023-02-11T22:01:34.710Z,68.91
2023-02-11T22:04:04.290Z,68.91
2023-02-11T22:06:34.339Z,68.80
2023-02-11T22:09:06.604Z,68.59
2023-02-11T22:11:35.381Z,68.69
2023-02-11T22:14:03.775Z,68.48
2023-02-11T22:16:32.114Z,68.48
2023-02-11T22:19:01.964Z,68.64
2023-02-11T22:21:30.468Z,68.27
2023-02-11T22:23:58.713Z,68.56
2023-02-11T22:26:28.309Z,68.31
2023-02-11T22:28:56.970Z,68.14
2023-02-11T22:31:28.855Z,68.41
2023-02-11T22:33:57.964Z,68.45
2023-02-11T22:36:28.052Z,68.09
2023-02-11T22:38:59.269Z,68.17
2023-02-11T22:41:27.824Z,68.37
2023-02-11T22:43:58.126Z,68.08
2023-02-11T22:46:27.447Z,67.97
2023-02-11T22:48:56.182Z,67.79
2023-02-11T22:51:26.904Z,67.76
2023-02-11T22:53:56.910Z,67.66
2023-02-11T22:56:26.419Z,67.53
2023-02-11T22:58:57.946Z,67.12
2023-02-11T23:01:26.699Z,67.30
2023-02-11T23:03:55.506Z,66.83
2023-02-11T23:06:24.192Z,67.06
2023-02-11T23:08:52.433Z,67.19
2023-02-11T23:11:22.244Z,66.82
2023-02-11T23:13:53.243Z,66.58
2023-02-11T23:16:23.684Z,66.65
2023-02-11T23:18:52.504Z,66.75
2023-02-11T23:21:22.323Z,66.60
2023-02-11T23:23:55.265Z,66.27
2023-02-11T23:26:25.444Z,65.97
2023-02-11T23:28:53.581Z,66.11
2023-02-11T23:31:23.983Z,65.92
2023-02-11T23:33:52.562Z,65.96
2023-02-11T23:36:22.135Z,66.05
2023-02-11T23:38:50.623Z,66.34
2023-02-11T23:41:19.492Z,66.43
2023-02-11T23:43:50.760Z,66.69
2023-02-11T23:46:19.242Z,66.61
2023-02-11T23:48:47.293Z,66.58
2023-02-11T23:51:15.349Z,66.82
2023-02-11T23:53:45.088Z,66.64
2023-02-11T23:56:16.659Z,66.54
2023-02-11T23:58:46.831Z,66.68
